sensor_id;sensor_type;location;lat;lon;timestamp;pressure;altitude;pressure_sealevel;temperature;humidity
78373;BME280;67656;52.074;4.758;2023-05-10T00:04:31;100927.22;;;10.50;100.00
78373;BME280;67656;52.074;4.758;2023-05-10T00:09:32;100909.91;;;10.39;100.00
78373;BME280;67656;52.074;4.758;2023-05-10T00:14:32;100912.00;;;10.25;100.00
78373;BME280;67656;52.074;4.758;2023-05-10T00:19:32;100910.69;;;10.07;100.00
78373;BME280;67656;52.074;4.758;2023-05-10T00:24:33;100914.06;;;10.13;100.00
78373;BME280;67656;52.074;4.758;2023-05-10T00:29:33;100923.59;;;10.18;100.00
78373;BME280;67656;52.074;4.758;2023-05-10T00:34:33;100928.66;;;10.27;100.00
78373;BME280;67656;52.074;4.758;2023-05-10T00:39:34;100931.31;;;10.25;100.00
78373;BME280;67656;52.074;4.758;2023-05-10T00:44:34;100930.78;;;10.12;100.00
78373;BME280;67656;52.074;4.758;2023-05-10T00:49:35;100918.81;;;9.99;100.00
78373;BME280;67656;52.074;4.758;2023-05-10T00:54:37;100924.28;;;9.90;100.00
78373;BME280;67656;52.074;4.758;2023-05-10T00:59:38;100925.81;;;10.00;100.00
78373;BME280;67656;52.074;4.758;2023-05-10T01:04:38;100920.19;;;9.78;100.00
78373;BME280;67656;52.074;4.758;2023-05-10T01:09:38;100913.22;;;9.75;100.00
78373;BME280;67656;52.074;4.758;2023-05-10T01:14:39;100920.34;;;9.70;100.00
78373;BME280;67656;52.074;4.758;2023-05-10T01:19:40;100918.38;;;9.78;100.00
78373;BME280;67656;52.074;4.758;2023-05-10T01:25:22;100932.34;;;9.83;100.00
78373;BME280;67656;52.074;4.758;2023-05-10T01:35:58;100949.97;;;10.18;100.00
78373;BME280;67656;52.074;4.758;2023-05-10T01:41:15;100950.56;;;10.29;100.00
78373;BME280;67656;52.074;4.758;2023-05-10T01:46:24;100947.78;;;10.35;100.00
78373;BME280;67656;52.074;4.758;2023-05-10T01:51:31;100953.88;;;10.39;100.00
78373;BME280;67656;52.074;4.758;2023-05-10T01:56:35;100959.16;;;10.39;100.00
78373;BME280;67656;52.074;4.758;2023-05-10T02:01:37;100954.59;;;10.45;100.00
78373;BME280;67656;52.074;4.758;2023-05-10T02:06:38;100965.94;;;10.49;100.00
78373;BME280;67656;52.074;4.758;2023-05-10T02:11:41;100970.19;;;10.55;100.00
78373;BME280;67656;52.074;4.758;2023-05-10T02:16:43;100971.78;;;10.60;100.00
78373;BME280;67656;52.074;4.758;2023-05-10T02:21:45;100973.34;;;10.69;100.00
78373;BME280;67656;52.074;4.758;2023-05-10T02:26:47;100977.56;;;10.75;100.00
78373;BME280;67656;52.074;4.758;2023-05-10T02:31:49;100975.78;;;10.77;100.00
78373;BME280;67656;52.074;4.758;2023-05-10T02:36:52;100980.06;;;10.81;100.00
78373;BME280;67656;52.074;4.758;2023-05-10T02:41:53;100978.97;;;10.88;100.00
78373;BME280;67656;52.074;4.758;2023-05-10T02:46:53;100986.00;;;10.89;100.00
78373;BME280;67656;52.074;4.758;2023-05-10T02:51:56;100985.03;;;10.92;100.00
78373;BME280;67656;52.074;4.758;2023-05-10T02:57:02;100990.31;;;10.92;100.00
78373;BME280;67656;52.074;4.758;2023-05-10T03:02:04;100984.19;;;10.91;100.00
78373;BME280;67656;52.074;4.758;2023-05-10T03:07:05;100981.56;;;10.90;100.00
78373;BME280;67656;52.074;4.758;2023-05-10T03:12:17;100985.94;;;10.93;100.00
78373;BME280;67656;52.074;4.758;2023-05-10T03:23:02;100985.03;;;10.92;100.00
78373;BME280;67656;52.074;4.758;2023-05-10T03:28:04;100981.56;;;10.91;100.00
78373;BME280;67656;52.074;4.758;2023-05-10T03:33:06;100988.50;;;10.94;100.00
78373;BME280;67656;52.074;4.758;2023-05-10T03:38:07;100982.41;;;10.92;100.00
78373;BME280;67656;52.074;4.758;2023-05-10T03:43:08;100992.06;;;10.93;100.00
78373;BME280;67656;52.074;4.758;2023-05-10T03:48:08;100996.50;;;10.93;100.00
78373;BME280;67656;52.074;4.758;2023-05-10T03:53:08;101000.88;;;10.94;100.00
78373;BME280;67656;52.074;4.758;2023-05-10T03:58:12;100999.06;;;10.94;100.00
78373;BME280;67656;52.074;4.758;2023-05-10T04:03:13;101001.69;;;10.96;100.00
78373;BME280;67656;52.074;4.758;2023-05-10T04:08:13;101001.00;;;10.89;100.00
78373;BME280;67656;52.074;4.758;2023-05-10T04:13:13;101009.72;;;10.91;100.00
78373;BME280;67656;52.074;4.758;2023-05-10T04:18:14;100999.97;;;10.95;100.00
78373;BME280;67656;52.074;4.758;2023-05-10T04:23:14;100989.66;;;10.84;100.00
78373;BME280;67656;52.074;4.758;2023-05-10T04:28:14;100992.31;;;10.84;100.00
78373;BME280;67656;52.074;4.758;2023-05-10T04:33:15;101016.13;;;10.82;100.00
78373;BME280;67656;52.074;4.758;2023-05-10T04:38:15;101019.69;;;10.81;100.00
78373;BME280;67656;52.074;4.758;2023-05-10T04:43:15;101024.94;;;10.81;100.00
78373;BME280;67656;52.074;4.758;2023-05-10T04:48:15;101037.31;;;10.79;100.00
78373;BME280;67656;52.074;4.758;2023-05-10T04:53:16;101039.38;;;10.66;100.00
78373;BME280;67656;52.074;4.758;2023-05-10T04:58:16;101035.91;;;10.66;100.00
78373;BME280;67656;52.074;4.758;2023-05-10T05:03:16;101049.63;;;10.80;100.00
78373;BME280;67656;52.074;4.758;2023-05-10T05:08:17;101045.25;;;10.79;100.00
78373;BME280;67656;52.074;4.758;2023-05-10T05:13:17;101056.66;;;10.80;100.00
78373;BME280;67656;52.074;4.758;2023-05-10T05:18:17;101055.81;;;10.78;100.00
78373;BME280;67656;52.074;4.758;2023-05-10T05:23:18;101056.34;;;10.92;100.00
78373;BME280;67656;52.074;4.758;2023-05-10T05:28:21;101064.25;;;10.92;100.00
78373;BME280;67656;52.074;4.758;2023-05-10T05:33:21;101068.69;;;10.91;100.00
78373;BME280;67656;52.074;4.758;2023-05-10T05:38:22;101084.47;;;10.93;100.00
78373;BME280;67656;52.074;4.758;2023-05-10T05:43:22;101082.88;;;10.87;100.00
78373;BME280;67656;52.074;4.758;2023-05-10T05:48:23;101081.00;;;10.93;100.00
78373;BME280;67656;52.074;4.758;2023-05-10T05:53:23;101093.03;;;11.03;100.00
78373;BME280;67656;52.074;4.758;2023-05-10T05:58:25;101093.69;;;11.11;100.00
78373;BME280;67656;52.074;4.758;2023-05-10T06:03:25;101097.38;;;11.05;100.00
78373;BME280;67656;52.074;4.758;2023-05-10T06:08:26;101096.13;;;11.19;100.00
78373;BME280;67656;52.074;4.758;2023-05-10T06:13:26;101092.00;;;11.42;100.00
78373;BME280;67656;52.074;4.758;2023-05-10T06:18:26;101088.59;;;11.70;100.00
78373;BME280;67656;52.074;4.758;2023-05-10T06:23:27;101105.47;;;11.95;100.00
78373;BME280;67656;52.074;4.758;2023-05-10T06:28:27;101094.44;;;11.81;100.00
78373;BME280;67656;52.074;4.758;2023-05-10T06:33:27;101091.00;;;12.09;100.00
78373;BME280;67656;52.074;4.758;2023-05-10T06:38:28;101103.59;;;12.01;100.00
78373;BME280;67656;52.074;4.758;2023-05-10T06:43:28;101097.06;;;11.81;100.00
78373;BME280;67656;52.074;4.758;2023-05-10T06:48:28;101104.53;;;11.66;100.00
78373;BME280;67656;52.074;4.758;2023-05-10T06:53:28;101114.41;;;11.91;100.00
78373;BME280;67656;52.074;4.758;2023-05-10T06:58:33;101112.03;;;12.42;100.00
78373;BME280;67656;52.074;4.758;2023-05-10T07:03:34;101110.66;;;12.85;100.00
78373;BME280;67656;52.074;4.758;2023-05-10T07:08:34;101118.19;;;12.98;100.00
78373;BME280;67656;52.074;4.758;2023-05-10T07:13:34;101110.97;;;12.76;100.00
78373;BME280;67656;52.074;4.758;2023-05-10T07:18:35;101124.69;;;12.60;100.00
78373;BME280;67656;52.074;4.758;2023-05-10T07:23:35;101128.72;;;12.44;100.00
78373;BME280;67656;52.074;4.758;2023-05-10T07:28:36;101132.88;;;12.53;100.00
78373;BME280;67656;52.074;4.758;2023-05-10T07:33:36;101135.75;;;12.45;100.00
78373;BME280;67656;52.074;4.758;2023-05-10T07:38:36;101136.63;;;12.74;100.00
78373;BME280;67656;52.074;4.758;2023-05-10T07:43:37;101138.16;;;12.81;100.00
78373;BME280;67656;52.074;4.758;2023-05-10T07:48:37;101140.91;;;13.05;100.00
78373;BME280;67656;52.074;4.758;2023-05-10T07:53:38;101136.66;;;12.99;100.00
78373;BME280;67656;52.074;4.758;2023-05-10T07:58:38;101136.72;;;13.25;100.00
78373;BME280;67656;52.074;4.758;2023-05-10T08:03:38;101132.22;;;13.54;100.00
78373;BME280;67656;52.074;4.758;2023-05-10T08:08:39;101142.38;;;13.41;100.00
78373;BME280;67656;52.074;4.758;2023-05-10T08:13:39;101146.81;;;13.40;100.00
78373;BME280;67656;52.074;4.758;2023-05-10T08:18:40;101155.97;;;13.30;100.00
78373;BME280;67656;52.074;4.758;2023-05-10T08:23:40;101163.81;;;13.06;100.00
78373;BME280;67656;52.074;4.758;2023-05-10T08:28:40;101165.97;;;12.95;100.00
78373;BME280;67656;52.074;4.758;2023-05-10T08:33:41;101177.75;;;13.13;100.00
78373;BME280;67656;52.074;4.758;2023-05-10T08:38:41;101177.66;;;13.16;100.00
78373;BME280;67656;52.074;4.758;2023-05-10T08:43:42;101186.25;;;13.23;100.00
78373;BME280;67656;52.074;4.758;2023-05-10T08:48:47;101194.63;;;13.37;100.00
78373;BME280;67656;52.074;4.758;2023-05-10T08:53:48;101198.19;;;13.36;100.00
78373;BME280;67656;52.074;4.758;2023-05-10T08:58:50;101199.25;;;13.30;100.00
78373;BME280;67656;52.074;4.758;2023-05-10T09:03:50;101208.94;;;13.04;100.00
78373;BME280;67656;52.074;4.758;2023-05-10T09:08:51;101210.41;;;13.13;100.00
78373;BME280;67656;52.074;4.758;2023-05-10T09:13:52;101214.03;;;12.84;100.00
78373;BME280;67656;52.074;4.758;2023-05-10T09:18:53;101213.13;;;12.83;100.00
78373;BME280;67656;52.074;4.758;2023-05-10T09:23:53;101225.53;;;12.83;100.00
78373;BME280;67656;52.074;4.758;2023-05-10T09:29:02;101223.09;;;12.75;100.00
78373;BME280;67656;52.074;4.758;2023-05-10T09:34:03;101221.72;;;12.92;100.00
78373;BME280;67656;52.074;4.758;2023-05-10T09:39:03;101226.44;;;13.37;100.00
78373;BME280;67656;52.074;4.758;2023-05-10T09:44:03;101229.00;;;13.67;100.00
78373;BME280;67656;52.074;4.758;2023-05-10T09:49:05;101222.91;;;13.89;100.00
78373;BME280;67656;52.074;4.758;2023-05-10T09:54:16;101218.91;;;14.02;100.00
78373;BME280;67656;52.074;4.758;2023-05-10T09:59:16;101232.66;;;13.88;100.00
78373;BME280;67656;52.074;4.758;2023-05-10T10:04:19;101236.66;;;14.00;100.00
78373;BME280;67656;52.074;4.758;2023-05-10T10:09:20;101241.53;;;14.12;100.00
78373;BME280;67656;52.074;4.758;2023-05-10T10:14:22;101229.38;;;14.05;100.00
78373;BME280;67656;52.074;4.758;2023-05-10T10:19:22;101233.50;;;14.14;100.00
78373;BME280;67656;52.074;4.758;2023-05-10T10:24:22;101240.59;;;14.85;100.00
78373;BME280;67656;52.074;4.758;2023-05-10T10:29:35;101226.38;;;14.86;100.00
78373;BME280;67656;52.074;4.758;2023-05-10T10:34:38;101220.13;;;16.33;100.00
78373;BME280;67656;52.074;4.758;2023-05-10T10:39:39;101211.72;;;16.42;100.00
78373;BME280;67656;52.074;4.758;2023-05-10T10:44:40;101208.69;;;16.69;100.00
78373;BME280;67656;52.074;4.758;2023-05-10T10:54:40;101205.66;;;16.77;100.00
78373;BME280;67656;52.074;4.758;2023-05-10T10:59:42;101222.03;;;15.91;100.00
78373;BME280;67656;52.074;4.758;2023-05-10T11:04:43;101224.47;;;15.12;100.00
78373;BME280;67656;52.074;4.758;2023-05-10T11:09:43;101237.50;;;14.73;100.00
78373;BME280;67656;52.074;4.758;2023-05-10T11:14:49;101246.28;;;14.03;100.00
78373;BME280;67656;52.074;4.758;2023-05-10T11:20:09;101254.72;;;14.14;100.00
78373;BME280;67656;52.074;4.758;2023-05-10T11:25:10;101256.34;;;13.93;100.00
78373;BME280;67656;52.074;4.758;2023-05-10T11:30:11;101257.03;;;13.74;100.00
78373;BME280;67656;52.074;4.758;2023-05-10T11:35:12;101272.72;;;13.80;100.00
78373;BME280;67656;52.074;4.758;2023-05-10T11:40:12;101276.66;;;13.94;100.00
78373;BME280;67656;52.074;4.758;2023-05-10T11:45:12;101284.16;;;13.56;100.00
78373;BME280;67656;52.074;4.758;2023-05-10T11:50:13;101289.88;;;13.43;100.00
78373;BME280;67656;52.074;4.758;2023-05-10T11:55:13;101289.25;;;13.62;100.00
78373;BME280;67656;52.074;4.758;2023-05-10T12:00:14;101287.63;;;14.10;100.00
78373;BME280;67656;52.074;4.758;2023-05-10T12:05:16;101293.31;;;13.99;100.00
78373;BME280;67656;52.074;4.758;2023-05-10T12:10:24;101300.91;;;14.10;100.00
78373;BME280;67656;52.074;4.758;2023-05-10T12:15:25;101297.84;;;14.21;100.00
78373;BME280;67656;52.074;4.758;2023-05-10T12:20:27;101294.94;;;14.03;100.00
78373;BME280;67656;52.074;4.758;2023-05-10T12:25:32;101294.63;;;14.60;100.00
78373;BME280;67656;52.074;4.758;2023-05-10T12:30:34;101276.72;;;15.35;100.00
78373;BME280;67656;52.074;4.758;2023-05-10T12:40:45;101287.72;;;15.03;100.00
78373;BME280;67656;52.074;4.758;2023-05-10T12:45:49;101280.28;;;15.12;100.00
78373;BME280;67656;52.074;4.758;2023-05-10T12:50:50;101285.59;;;15.34;100.00
78373;BME280;67656;52.074;4.758;2023-05-10T12:55:50;101284.88;;;15.30;100.00
78373;BME280;67656;52.074;4.758;2023-05-10T13:00:51;101287.34;;;15.13;100.00
78373;BME280;67656;52.074;4.758;2023-05-10T13:05:51;101299.94;;;15.52;100.00
78373;BME280;67656;52.074;4.758;2023-05-10T13:10:51;101292.69;;;15.76;100.00
78373;BME280;67656;52.074;4.758;2023-05-10T13:15:52;101295.53;;;16.35;100.00
78373;BME280;67656;52.074;4.758;2023-05-10T13:20:53;101300.63;;;15.78;100.00
78373;BME280;67656;52.074;4.758;2023-05-10T13:25:54;101292.81;;;15.95;100.00
78373;BME280;67656;52.074;4.758;2023-05-10T13:30:54;101302.91;;;15.66;100.00
78373;BME280;67656;52.074;4.758;2023-05-10T13:35:54;101306.47;;;15.65;100.00
78373;BME280;67656;52.074;4.758;2023-05-10T13:40:55;101308.72;;;15.54;100.00
78373;BME280;67656;52.074;4.758;2023-05-10T13:45:55;101315.66;;;15.14;100.00
78373;BME280;67656;52.074;4.758;2023-05-10T13:50:55;101317.63;;;14.86;100.00
78373;BME280;67656;52.074;4.758;2023-05-10T13:55:56;101324.50;;;14.67;100.00
78373;BME280;67656;52.074;4.758;2023-05-10T14:00:56;101331.22;;;14.77;100.00
78373;BME280;67656;52.074;4.758;2023-05-10T14:05:56;101331.94;;;14.57;100.00
78373;BME280;67656;52.074;4.758;2023-05-10T14:10:57;101333.44;;;14.40;100.00
78373;BME280;67656;52.074;4.758;2023-05-10T14:15:57;101330.66;;;14.43;100.00
78373;BME280;67656;52.074;4.758;2023-05-10T14:20:58;101343.69;;;14.26;100.00
78373;BME280;67656;52.074;4.758;2023-05-10T14:25:58;101333.41;;;14.17;100.00
78373;BME280;67656;52.074;4.758;2023-05-10T14:30:59;101333.41;;;14.17;100.00
78373;BME280;67656;52.074;4.758;2023-05-10T14:35:59;101332.72;;;14.35;100.00
78373;BME280;67656;52.074;4.758;2023-05-10T14:40:59;101329.69;;;14.46;100.00
78373;BME280;67656;52.074;4.758;2023-05-10T14:46:00;101320.09;;;14.67;100.00
78373;BME280;67656;52.074;4.758;2023-05-10T14:51:00;101307.81;;;14.39;100.00
78373;BME280;67656;52.074;4.758;2023-05-10T14:56:00;101308.63;;;14.65;100.00
78373;BME280;67656;52.074;4.758;2023-05-10T15:01:01;101302.97;;;14.98;100.00
78373;BME280;67656;52.074;4.758;2023-05-10T15:06:01;101294.38;;;15.79;100.00
78373;BME280;67656;52.074;4.758;2023-05-10T15:11:09;101294.63;;;15.52;100.00
78373;BME280;67656;52.074;4.758;2023-05-10T15:16:09;101292.09;;;15.92;100.00
78373;BME280;67656;52.074;4.758;2023-05-10T15:21:10;101301.91;;;15.47;100.00
78373;BME280;67656;52.074;4.758;2023-05-10T15:26:10;101321.75;;;15.38;100.00
78373;BME280;67656;52.074;4.758;2023-05-10T15:31:10;101312.19;;;15.12;100.00
78373;BME280;67656;52.074;4.758;2023-05-10T15:36:11;101321.13;;;14.87;100.00
78373;BME280;67656;52.074;4.758;2023-05-10T15:41:11;101327.88;;;14.96;100.00
78373;BME280;67656;52.074;4.758;2023-05-10T15:46:11;101337.06;;;14.87;100.00
78373;BME280;67656;52.074;4.758;2023-05-10T15:51:12;101342.34;;;14.63;100.00
78373;BME280;67656;52.074;4.758;2023-05-10T15:56:12;101350.31;;;14.63;100.00
78373;BME280;67656;52.074;4.758;2023-05-10T16:01:13;101357.75;;;14.53;100.00
78373;BME280;67656;52.074;4.758;2023-05-10T16:06:13;101368.81;;;14.66;100.00
78373;BME280;67656;52.074;4.758;2023-05-10T16:11:13;101360.38;;;14.29;100.00
78373;BME280;67656;52.074;4.758;2023-05-10T16:16:14;101364.16;;;14.48;100.00
78373;BME280;67656;52.074;4.758;2023-05-10T16:21:14;101371.50;;;14.65;100.00
78373;BME280;67656;52.074;4.758;2023-05-10T16:26:14;101364.16;;;14.48;100.00
78373;BME280;67656;52.074;4.758;2023-05-10T16:31:15;101378.13;;;14.02;100.00
78373;BME280;67656;52.074;4.758;2023-05-10T16:36:15;101380.56;;;14.08;100.00
78373;BME280;67656;52.074;4.758;2023-05-10T16:41:15;101389.69;;;14.00;100.00
78373;BME280;67656;52.074;4.758;2023-05-10T16:46:16;101389.56;;;13.77;100.00
78373;BME280;67656;52.074;4.758;2023-05-10T16:51:16;101383.31;;;14.05;100.00
78373;BME280;67656;52.074;4.758;2023-05-10T16:56:16;101383.56;;;14.50;100.00
78373;BME280;67656;52.074;4.758;2023-05-10T17:01:17;101385.72;;;14.89;100.00
78373;BME280;67656;52.074;4.758;2023-05-10T17:06:17;101374.59;;;15.25;100.00
78373;BME280;67656;52.074;4.758;2023-05-10T17:11:17;101387.34;;;14.93;100.00
78373;BME280;67656;52.074;4.758;2023-05-10T17:16:18;101384.06;;;15.09;100.00
78373;BME280;67656;52.074;4.758;2023-05-10T17:21:18;101388.81;;;14.77;100.00
78373;BME280;67656;52.074;4.758;2023-05-10T17:26:18;101390.03;;;14.42;100.00
78373;BME280;67656;52.074;4.758;2023-05-10T17:31:19;101395.91;;;14.25;100.00
78373;BME280;67656;52.074;4.758;2023-05-10T17:36:19;101400.75;;;14.39;100.00
78373;BME280;67656;52.074;4.758;2023-05-10T17:41:19;101394.00;;;14.54;100.00
78373;BME280;67656;52.074;4.758;2023-05-10T17:46:20;101399.38;;;14.01;100.00
78373;BME280;67656;52.074;4.758;2023-05-10T17:51:20;101411.13;;;13.93;100.00
78373;BME280;67656;52.074;4.758;2023-05-10T17:56:20;101407.84;;;13.58;100.00
78373;BME280;67656;52.074;4.758;2023-05-10T18:01:21;101408.13;;;13.77;100.00
78373;BME280;67656;52.074;4.758;2023-05-10T18:06:21;101412.50;;;13.50;100.00
78373;BME280;67656;52.074;4.758;2023-05-10T18:11:21;101426.06;;;13.41;100.00
78373;BME280;67656;52.074;4.758;2023-05-10T18:16:21;101425.69;;;13.23;100.00
78373;BME280;67656;52.074;4.758;2023-05-10T18:21:22;101427.66;;;13.15;100.00
78373;BME280;67656;52.074;4.758;2023-05-10T18:26:22;101434.28;;;13.00;100.00
78373;BME280;67656;52.074;4.758;2023-05-10T18:31:22;101431.81;;;12.94;100.00
78373;BME280;67656;52.074;4.758;2023-05-10T18:36:23;101428.22;;;12.96;100.00
78373;BME280;67656;52.074;4.758;2023-05-10T18:41:23;101435.38;;;12.93;100.00
78373;BME280;67656;52.074;4.758;2023-05-10T18:46:24;101442.03;;;12.76;100.00
78373;BME280;67656;52.074;4.758;2023-05-10T18:51:24;101443.84;;;12.74;100.00
78373;BME280;67656;52.074;4.758;2023-05-10T18:56:24;101451.94;;;12.68;100.00
78373;BME280;67656;52.074;4.758;2023-05-10T19:01:25;101455.69;;;12.60;100.00
78373;BME280;67656;52.074;4.758;2023-05-10T19:06:25;101457.88;;;12.44;100.00
78373;BME280;67656;52.074;4.758;2023-05-10T19:11:25;101462.59;;;12.32;100.00
78373;BME280;67656;52.074;4.758;2023-05-10T19:16:26;101473.41;;;12.22;100.00
78373;BME280;67656;52.074;4.758;2023-05-10T19:21:26;101477.13;;;12.15;100.00
78373;BME280;67656;52.074;4.758;2023-05-10T19:26:26;101490.56;;;12.06;100.00
78373;BME280;67656;52.074;4.758;2023-05-10T19:31:27;101484.44;;;12.04;100.00
78373;BME280;67656;52.074;4.758;2023-05-10T19:36:27;101496.31;;;11.84;100.00
78373;BME280;67656;52.074;4.758;2023-05-10T19:41:28;101504.47;;;11.75;100.00
78373;BME280;67656;52.074;4.758;2023-05-10T19:46:28;101506.22;;;11.76;100.00
78373;BME280;67656;52.074;4.758;2023-05-10T19:51:28;101510.41;;;11.84;100.00
78373;BME280;67656;52.074;4.758;2023-05-10T19:56:29;101519.56;;;11.71;100.00
78373;BME280;67656;52.074;4.758;2023-05-10T20:01:29;101515.31;;;11.62;100.00
78373;BME280;67656;52.074;4.758;2023-05-10T20:06:29;101523.31;;;11.59;100.00
78373;BME280;67656;52.074;4.758;2023-05-10T20:11:29;101521.66;;;11.53;100.00
78373;BME280;67656;52.074;4.758;2023-05-10T20:16:30;101527.81;;;11.54;100.00
78373;BME280;67656;52.074;4.758;2023-05-10T20:21:30;101521.78;;;11.49;100.00
78373;BME280;67656;52.074;4.758;2023-05-10T20:26:31;101525.38;;;11.45;100.00
78373;BME280;67656;52.074;4.758;2023-05-10T20:31:32;101529.97;;;11.35;100.00
78373;BME280;67656;52.074;4.758;2023-05-10T20:36:32;101532.53;;;11.40;100.00
78373;BME280;67656;52.074;4.758;2023-05-10T20:41:32;101532.44;;;11.44;100.00
78373;BME280;67656;52.074;4.758;2023-05-10T20:46:33;101536.84;;;11.44;100.00
78373;BME280;67656;52.074;4.758;2023-05-10T20:51:33;101529.81;;;11.43;100.00
78373;BME280;67656;52.074;4.758;2023-05-10T20:56:33;101538.66;;;11.42;100.00
78373;BME280;67656;52.074;4.758;2023-05-10T21:01:34;101536.91;;;11.41;100.00
78373;BME280;67656;52.074;4.758;2023-05-10T21:06:34;101522.03;;;11.35;100.00
78373;BME280;67656;52.074;4.758;2023-05-10T21:11:34;101522.97;;;11.32;100.00
78373;BME280;67656;52.074;4.758;2023-05-10T21:16:35;101521.25;;;11.31;100.00
78373;BME280;67656;52.074;4.758;2023-05-10T21:21:35;101512.47;;;11.29;100.00
78373;BME280;67656;52.074;4.758;2023-05-10T21:26:36;101519.44;;;11.33;100.00
78373;BME280;67656;52.074;4.758;2023-05-10T21:31:36;101520.34;;;11.32;100.00
78373;BME280;67656;52.074;4.758;2023-05-10T21:36:36;101513.25;;;11.34;100.00
78373;BME280;67656;52.074;4.758;2023-05-10T21:41:37;101517.69;;;11.32;100.00
78373;BME280;67656;52.074;4.758;2023-05-10T21:46:37;101514.09;;;11.36;100.00
78373;BME280;67656;52.074;4.758;2023-05-10T21:51:37;101524.53;;;11.44;100.00
78373;BME280;67656;52.074;4.758;2023-05-10T21:56:37;101519.59;;;11.27;100.00
78373;BME280;67656;52.074;4.758;2023-05-10T22:01:38;101520.50;;;11.25;100.00
78373;BME280;67656;52.074;4.758;2023-05-10T22:06:38;101527.47;;;11.29;100.00
78373;BME280;67656;52.074;4.758;2023-05-10T22:11:38;101524.16;;;11.17;100.00
78373;BME280;67656;52.074;4.758;2023-05-10T22:16:39;101525.03;;;11.18;100.00
78373;BME280;67656;52.074;4.758;2023-05-10T22:21:39;101529.53;;;11.13;100.00
78373;BME280;67656;52.074;4.758;2023-05-10T22:26:40;101535.81;;;11.05;100.00
78373;BME280;67656;52.074;4.758;2023-05-10T22:31:40;101527.94;;;11.04;100.00
78373;BME280;67656;52.074;4.758;2023-05-10T22:36:40;101532.34;;;11.03;100.00
78373;BME280;67656;52.074;4.758;2023-05-10T22:41:41;101535.97;;;10.99;100.00
78373;BME280;67656;52.074;4.758;2023-05-10T22:46:41;101534.31;;;10.92;100.00
78373;BME280;67656;52.074;4.758;2023-05-10T22:51:42;101534.44;;;10.86;100.00
78373;BME280;67656;52.074;4.758;2023-05-10T22:56:42;101542.38;;;10.84;100.00
78373;BME280;67656;52.074;4.758;2023-05-10T23:01:42;101530.94;;;10.84;100.00
78373;BME280;67656;52.074;4.758;2023-05-10T23:06:43;101535.41;;;10.80;100.00
78373;BME280;67656;52.074;4.758;2023-05-10T23:11:43;101543.34;;;10.79;100.00
78373;BME280;67656;52.074;4.758;2023-05-10T23:16:43;101547.91;;;10.70;100.00
78373;BME280;67656;52.074;4.758;2023-05-10T23:21:44;101552.34;;;10.68;100.00
78373;BME280;67656;52.074;4.758;2023-05-10T23:26:44;101561.16;;;10.67;100.00
78373;BME280;67656;52.074;4.758;2023-05-10T23:31:47;101552.38;;;10.65;100.00
78373;BME280;67656;52.074;4.758;2023-05-10T23:36:47;101551.47;;;10.66;100.00
78373;BME280;67656;52.074;4.758;2023-05-10T23:41:48;101552.38;;;10.65;100.00
78373;BME280;67656;52.074;4.758;2023-05-10T23:46:48;101543.66;;;10.63;100.00
78373;BME280;67656;52.074;4.758;2023-05-10T23:51:48;101543.69;;;10.60;100.00
78373;BME280;67656;52.074;4.758;2023-05-10T23:56:49;101543.69;;;10.60;100.00
